Nevskiy-31 — UCGM — position and weather

sailwx.info

Track history (hours):
 
Tides and Currents Weather Stations Pressure Air Temp Water Temp Dewpoint Dewpoint Depression Visibility Wind Speed Wind Dir Waves Ship Positions

Nevskiy-31

Last reported at 2015-Nov-13 10:33 UTC. Time now 2016-Jul-28 04:48 UTC.
Position N 59°48' E 030°38'.
Warning: this ship's position is months out of date.

Length 111 m; draft 2.4 m.

Type: Cargo ship. MMSI: 273440320.

Date/timePositionNaut miles runAvg speedWind from/ knotsBaromVisibWave heightAir tempDewpointWater temp
2015-Nov-13 10:33N 59°48' E 030°38'5 4.7
2015-Nov-13 09:24N 59°51' E 030°30'3 0.4
2015-Nov-13 01:21N 59°54' E 030°26'0 0.0
2015-Nov-13 00:33N 59°54' E 030°26'1 0.4
2015-Nov-12 21:24N 59°55' E 030°24'3 3.4
2015-Nov-12 20:33N 59°57' E 030°20'5 5.0
2015-Nov-12 19:33N 59°58' E 030°10'6 5.9
2015-Nov-12 18:33N 59°55' E 029°59'1 0.9
2015-Nov-12 17:33N 59°55' E 029°58'0 0.0
2015-Nov-12 16:33N 59°55' E 029°58'0 0.0
2015-Nov-12 15:33N 59°55' E 029°58'0 0.0
2015-Nov-12 14:33N 59°55' E 029°58'0 0.0
2015-Nov-12 13:33N 59°55' E 029°58'0 0.0
2015-Nov-12 12:30N 59°55' E 029°58'0 0.0
2015-Nov-12 11:30N 59°55' E 029°58'0 0.0
2015-Nov-12 10:33N 59°55' E 029°58'0 0.0
2015-Nov-12 09:33N 59°55' E 029°58'0 0.0
2015-Nov-12 08:33N 59°55' E 029°58'0 0.0
2015-Nov-12 07:33N 59°55' E 029°58'0 0.0
2015-Nov-12 06:33N 59°55' E 029°58'0 0.0
2015-Nov-12 05:33N 59°55' E 029°58'0 0.0
2015-Nov-12 04:33N 59°55' E 029°58'0 0.0
2015-Nov-12 03:30N 59°55' E 029°58'0 0.0
2015-Nov-12 02:33N 59°55' E 029°58'0 0.0
2015-Nov-12 01:33N 59°55' E 029°58'0 0.0
2015-Nov-12 00:33N 59°55' E 029°58'0 0.0
2015-Nov-11 23:33N 59°55' E 029°58'0 0.0
2015-Nov-11 22:33N 59°55' E 029°58'0 0.0
2015-Nov-11 21:33N 59°55' E 029°58'0 0.0
2015-Nov-11 20:33N 59°55' E 029°58'0 0.0
2015-Nov-11 19:33N 59°55' E 029°58'0 0.0
2015-Nov-11 18:33N 59°55' E 029°58'0 0.0
2015-Nov-11 17:30N 59°55' E 029°58'0 0.0
2015-Nov-11 16:33N 59°55' E 029°58'0 0.0
2015-Nov-11 15:33N 59°55' E 029°58'0 0.0
2015-Nov-11 14:33N 59°55' E 029°58'0 0.0
2015-Nov-11 13:33N 59°55' E 029°58'0 0.0
2015-Nov-11 12:33N 59°55' E 029°58'1 0.9
2015-Nov-11 11:33N 59°56' E 029°56'5 5.1
2015-Nov-11 10:33N 59°58' E 029°47'2 2.4
2015-Nov-11 09:31N 59°59' E 029°42'0 0.0
2015-Nov-11 08:30N 59°59' E 029°42'24 6.1
2015-Nov-11 04:33N 59°60' E 028°54'7 6.6
2015-Nov-11 03:33N 59°60' E 028°41'7 6.7
2015-Nov-11 02:33N 59°59' E 028°28'4 3.8
2015-Nov-11 01:33N 59°58' E 028°20'0 0.1
2015-Nov-11 00:33N 59°58' E 028°20'2 2.4
2015-Nov-10 23:33N 59°58' E 028°25'7 7.2
2015-Nov-10 22:33N 59°60' E 028°39'7 7.3
2015-Nov-10 21:33N 60°00' E 028°54'7 7.5
2015-Nov-10 20:33N 60°00' E 029°09'15 7.5
2015-Nov-10 18:30N 59°60' E 029°40'7 7.7
2015-Nov-10 17:33N 59°57' E 029°53'7 7.4
2015-Nov-10 16:33N 59°54' E 030°07'4 3.9
2015-Nov-10 15:33N 59°52' E 030°13'0 0.0
2015-Nov-10 14:33N 59°52' E 030°13'0 0.0
2015-Nov-10 13:33N 59°52' E 030°13'2 1.1
2015-Nov-10 11:33N 59°53' E 030°10'5 5.5
2015-Nov-10 10:33N 59°55' E 029°60'1 1.0
2015-Nov-10 09:33N 59°55' E 029°58'0 0.0
2015-Nov-10 08:33N 59°55' E 029°58'0 0.0
2015-Nov-10 07:33N 59°55' E 029°58'5 5.0
2015-Nov-10 06:32N 59°58' E 029°48'27 5.5
2015-Nov-10 01:33N 59°60' E 028°54'6 6.3
2015-Nov-10 00:33N 59°60' E 028°42'7 6.5
2015-Nov-09 23:33N 59°58' E 028°29'5 4.7
2015-Nov-09 22:33N 59°59' E 028°20'1 0.6
2015-Nov-09 21:33N 59°58' E 028°20'1 1.1
2015-Nov-09 20:33N 59°59' E 028°22'6 6.3
2015-Nov-09 19:33N 59°59' E 028°34'7 6.8
2015-Nov-09 18:33N 60°00' E 028°48'7 7.2
2015-Nov-09 17:32N 60°00' E 029°02'22 7.3
2015-Nov-09 14:33N 59°59' E 029°46'7 7.0
2015-Nov-09 13:34N 59°56' E 029°59'7 6.9
2015-Nov-09 12:33N 59°58' E 030°12'6 6.3
2015-Nov-09 11:33N 59°57' E 030°24'1 0.1
2015-Nov-09 03:19N 59°56' E 030°24'2 2.7
2015-Nov-09 02:33N 59°57' E 030°20'5 4.6
2015-Nov-09 01:33N 59°58' E 030°11'6 5.9
2015-Nov-09 00:33N 59°55' E 030°01'6 6.2
2015-Nov-08 23:32N 59°58' E 029°49'23 5.7
2015-Nov-08 19:26N 59°60' E 029°03'5 6.1
2015-Nov-08 18:32N 59°60' E 028°52'6 6.2
2015-Nov-08 17:33N 59°60' E 028°39'6 6.2
2015-Nov-08 16:33N 59°59' E 028°27'4 3.8
2015-Nov-08 15:33N 59°58' E 028°20'0 0.4
2015-Nov-08 14:33N 59°58' E 028°20'1 0.6
2015-Nov-08 13:33N 59°58' E 028°19'2 1.6
2015-Nov-08 12:33N 59°58' E 028°23'0 0.0
2015-Nov-08 11:33N 59°58' E 028°23'0 0.0
2015-Nov-08 10:33N 59°58' E 028°23'0 0.0
2015-Nov-08 09:34N 59°58' E 028°23'0 0.0
2015-Nov-08 08:33N 59°58' E 028°23'0 0.0
2015-Nov-08 07:33N 59°58' E 028°23'0 0.4
2015-Nov-08 06:33N 59°58' E 028°23'6 5.6
2015-Nov-08 05:33N 59°59' E 028°35'6 6.3
2015-Nov-08 04:33N 60°00' E 028°47'7 6.5
2015-Nov-08 03:33N 60°00' E 029°00'23 6.9
2015-Nov-08 00:10N 59°58' E 029°46'5 7.5
2015-Nov-07 23:33N 59°56' E 029°55'7 6.6
2015-Nov-07 22:33N 59°57' E 030°08'6 6.3
2015-Nov-07 21:33N 59°57' E 030°21'4 0.9
2015-Nov-07 17:25N 59°54' E 030°26'3 3.9
2015-Nov-07 16:33N 59°57' E 030°23'5 4.6
2015-Nov-07 15:33N 59°58' E 030°13'5 5.4
2015-Nov-07 14:33N 59°56' E 030°03'6 5.6
2015-Nov-07 13:33N 59°57' E 029°52'26 6.4
2015-Nov-07 09:26N 59°60' E 029°00'5 5.1
2015-Nov-07 08:30N 60°00' E 028°51'5 5.0
2015-Nov-07 07:33N 59°60' E 028°41'5 5.1
2015-Nov-07 06:33N 59°59' E 028°31'5 5.2
2015-Nov-07 05:34N 59°59' E 028°21'1 0.8
2015-Nov-07 04:33N 59°58' E 028°19'2 1.5
2015-Nov-07 03:33N 59°59' E 028°22'6 5.9
2015-Nov-07 02:33N 59°59' E 028°34'7 6.8
2015-Nov-07 01:33N 60°00' E 028°48'7 7.2
2015-Nov-07 00:31N 60°00' E 029°03'22 7.3
2015-Nov-06 21:31N 59°58' E 029°46'7 7.0
2015-Nov-06 20:34N 59°56' E 029°59'7 6.7
2015-Nov-06 19:33N 59°58' E 030°11'6 6.5
2015-Nov-06 18:33N 59°57' E 030°24'2 0.3
2015-Nov-06 13:04N 59°56' E 030°24'2 3.1
2015-Nov-06 12:32N 59°57' E 030°22'4 3.6
2015-Nov-06 11:33N 59°57' E 030°15'54 4.1
2015-Nov-05 22:33N 59°58' E 028°28'3 3.5
2015-Nov-05 21:33N 59°59' E 028°21'0 0.2
2015-Nov-05 20:33N 59°59' E 028°21'3 3.1
2015-Nov-05 19:33N 59°58' E 028°27'7 7.0
2015-Nov-05 18:31N 59°60' E 028°41'8 7.0
2015-Nov-05 17:22N 60°00' E 028°57'39 5.7
2015-Nov-05 10:33N 59°52' E 030°13'0 0.1
2015-Nov-05 09:33N 59°52' E 030°13'0 0.0
2015-Nov-05 08:33N 59°52' E 030°13'0 0.0
2015-Nov-05 07:33N 59°52' E 030°13'1 1.0
2015-Nov-05 06:33N 59°53' E 030°12'6 5.7
2015-Nov-05 05:33N 59°55' E 030°02'2 2.0
2015-Nov-05 04:33N 59°55' E 029°58'0 0.0
2015-Nov-05 03:33N 59°55' E 029°58'0 0.0
2015-Nov-05 02:33N 59°55' E 029°58'0 0.0
2015-Nov-05 01:33N 59°55' E 029°58'2 2.5
2015-Nov-05 00:33N 59°57' E 029°53'25 6.0
2015-Nov-04 20:19N 60°00' E 029°03'5 6.2
2015-Nov-04 19:33N 59°60' E 028°53'6 6.2
2015-Nov-04 18:33N 59°60' E 028°41'6 6.2
2015-Nov-04 17:33N 59°59' E 028°29'4 4.3
2015-Nov-04 16:33N 59°59' E 028°20'0 0.4
2015-Nov-04 15:33N 59°59' E 028°19'2 1.9
2015-Nov-04 14:33N 59°59' E 028°23'5 4.6
2015-Nov-04 13:33N 59°59' E 028°32'6 6.2
2015-Nov-04 12:33N 59°60' E 028°45'4 4.3
2015-Nov-04 11:32N 60°00' E 028°54'5 4.8
2015-Nov-04 10:33N 60°00' E 029°03'19 5.7
2015-Nov-04 07:11N 59°60' E 029°41'4 6.3
2015-Nov-04 06:33N 59°58' E 029°48'6 6.2
2015-Nov-04 05:33N 59°55' E 029°60'5 5.2
2015-Nov-04 04:34N 59°57' E 030°09'2 2.1
2015-Nov-04 03:33N 59°58' E 030°13'0 0.0
2015-Nov-04 02:33N 59°58' E 030°13'0 0.0
2015-Nov-04 01:33N 59°58' E 030°13'0 0.0
2015-Nov-04 00:33N 59°58' E 030°13'0 0.0
2015-Nov-03 23:33N 59°58' E 030°13'0 0.0
2015-Nov-03 22:33N 59°58' E 030°13'0 0.0
2015-Nov-03 21:33N 59°58' E 030°13'0 0.0
2015-Nov-03 20:33N 59°58' E 030°13'0 0.0
2015-Nov-03 19:33N 59°58' E 030°13'0 0.0
2015-Nov-03 18:33N 59°58' E 030°13'0 0.0
2015-Nov-03 17:33N 59°58' E 030°13'0 0.0
2015-Nov-03 16:33N 59°58' E 030°13'0 0.0
2015-Nov-03 15:33N 59°58' E 030°13'0 0.0
2015-Nov-03 14:33N 59°58' E 030°13'0 0.0
2015-Nov-03 13:33N 59°58' E 030°13'0 0.0
2015-Nov-03 12:33N 59°58' E 030°13'0 0.0
2015-Nov-03 11:33N 59°58' E 030°13'0 0.0
2015-Nov-03 10:33N 59°58' E 030°13'  
Track history (hours):
 
Tides and Currents Weather Stations Pressure Air Temp Water Temp Dewpoint Dewpoint Depression Visibility Wind Speed Wind Dir Waves Ship Positions

Nevskiy-31

Last reported at 2015-Nov-13 10:33 UTC. Time now 2016-Jul-28 04:48 UTC.
Position N 59°48' E 030°38'.
Warning: this ship's position is months out of date.

Length 111 m; draft 2.4 m.

Type: Cargo ship. MMSI: 273440320.

Date/timePositionNaut miles runAvg speedWind from/ knotsBaromVisibWave heightAir tempDewpointWater temp
2015-Nov-13 10:33N 59°48' E 030°38'5 4.7
2015-Nov-13 09:24N 59°51' E 030°30'3 0.4
2015-Nov-13 01:21N 59°54' E 030°26'0 0.0
2015-Nov-13 00:33N 59°54' E 030°26'1 0.4
2015-Nov-12 21:24N 59°55' E 030°24'3 3.4
2015-Nov-12 20:33N 59°57' E 030°20'5 5.0
2015-Nov-12 19:33N 59°58' E 030°10'6 5.9
2015-Nov-12 18:33N 59°55' E 029°59'1 0.9
2015-Nov-12 17:33N 59°55' E 029°58'0 0.0
2015-Nov-12 16:33N 59°55' E 029°58'0 0.0
2015-Nov-12 15:33N 59°55' E 029°58'0 0.0
2015-Nov-12 14:33N 59°55' E 029°58'0 0.0
2015-Nov-12 13:33N 59°55' E 029°58'0 0.0
2015-Nov-12 12:30N 59°55' E 029°58'0 0.0
2015-Nov-12 11:30N 59°55' E 029°58'0 0.0
2015-Nov-12 10:33N 59°55' E 029°58'0 0.0
2015-Nov-12 09:33N 59°55' E 029°58'0 0.0
2015-Nov-12 08:33N 59°55' E 029°58'0 0.0
2015-Nov-12 07:33N 59°55' E 029°58'0 0.0
2015-Nov-12 06:33N 59°55' E 029°58'0 0.0
2015-Nov-12 05:33N 59°55' E 029°58'0 0.0
2015-Nov-12 04:33N 59°55' E 029°58'0 0.0
2015-Nov-12 03:30N 59°55' E 029°58'0 0.0
2015-Nov-12 02:33N 59°55' E 029°58'0 0.0
2015-Nov-12 01:33N 59°55' E 029°58'0 0.0
2015-Nov-12 00:33N 59°55' E 029°58'0 0.0
2015-Nov-11 23:33N 59°55' E 029°58'0 0.0
2015-Nov-11 22:33N 59°55' E 029°58'0 0.0
2015-Nov-11 21:33N 59°55' E 029°58'0 0.0
2015-Nov-11 20:33N 59°55' E 029°58'0 0.0
2015-Nov-11 19:33N 59°55' E 029°58'0 0.0
2015-Nov-11 18:33N 59°55' E 029°58'0 0.0
2015-Nov-11 17:30N 59°55' E 029°58'0 0.0
2015-Nov-11 16:33N 59°55' E 029°58'0 0.0
2015-Nov-11 15:33N 59°55' E 029°58'0 0.0
2015-Nov-11 14:33N 59°55' E 029°58'0 0.0
2015-Nov-11 13:33N 59°55' E 029°58'0 0.0
2015-Nov-11 12:33N 59°55' E 029°58'1 0.9
2015-Nov-11 11:33N 59°56' E 029°56'5 5.1
2015-Nov-11 10:33N 59°58' E 029°47'2 2.4
2015-Nov-11 09:31N 59°59' E 029°42'0 0.0
2015-Nov-11 08:30N 59°59' E 029°42'24 6.1
2015-Nov-11 04:33N 59°60' E 028°54'7 6.6
2015-Nov-11 03:33N 59°60' E 028°41'7 6.7
2015-Nov-11 02:33N 59°59' E 028°28'4 3.8
2015-Nov-11 01:33N 59°58' E 028°20'0 0.1
2015-Nov-11 00:33N 59°58' E 028°20'2 2.4
2015-Nov-10 23:33N 59°58' E 028°25'7 7.2
2015-Nov-10 22:33N 59°60' E 028°39'7 7.3
2015-Nov-10 21:33N 60°00' E 028°54'7 7.5
2015-Nov-10 20:33N 60°00' E 029°09'15 7.5
2015-Nov-10 18:30N 59°60' E 029°40'7 7.7
2015-Nov-10 17:33N 59°57' E 029°53'7 7.4
2015-Nov-10 16:33N 59°54' E 030°07'4 3.9
2015-Nov-10 15:33N 59°52' E 030°13'0 0.0
2015-Nov-10 14:33N 59°52' E 030°13'0 0.0
2015-Nov-10 13:33N 59°52' E 030°13'2 1.1
2015-Nov-10 11:33N 59°53' E 030°10'5 5.5
2015-Nov-10 10:33N 59°55' E 029°60'1 1.0
2015-Nov-10 09:33N 59°55' E 029°58'0 0.0
2015-Nov-10 08:33N 59°55' E 029°58'0 0.0
2015-Nov-10 07:33N 59°55' E 029°58'5 5.0
2015-Nov-10 06:32N 59°58' E 029°48'27 5.5
2015-Nov-10 01:33N 59°60' E 028°54'6 6.3
2015-Nov-10 00:33N 59°60' E 028°42'7 6.5
2015-Nov-09 23:33N 59°58' E 028°29'5 4.7
2015-Nov-09 22:33N 59°59' E 028°20'1 0.6
2015-Nov-09 21:33N 59°58' E 028°20'1 1.1
2015-Nov-09 20:33N 59°59' E 028°22'6 6.3
2015-Nov-09 19:33N 59°59' E 028°34'7 6.8
2015-Nov-09 18:33N 60°00' E 028°48'7 7.2
2015-Nov-09 17:32N 60°00' E 029°02'22 7.3
2015-Nov-09 14:33N 59°59' E 029°46'7 7.0
2015-Nov-09 13:34N 59°56' E 029°59'7 6.9
2015-Nov-09 12:33N 59°58' E 030°12'6 6.3
2015-Nov-09 11:33N 59°57' E 030°24'1 0.1
2015-Nov-09 03:19N 59°56' E 030°24'2 2.7
2015-Nov-09 02:33N 59°57' E 030°20'5 4.6
2015-Nov-09 01:33N 59°58' E 030°11'6 5.9
2015-Nov-09 00:33N 59°55' E 030°01'6 6.2
2015-Nov-08 23:32N 59°58' E 029°49'23 5.7
2015-Nov-08 19:26N 59°60' E 029°03'5 6.1
2015-Nov-08 18:32N 59°60' E 028°52'6 6.2
2015-Nov-08 17:33N 59°60' E 028°39'6 6.2
2015-Nov-08 16:33N 59°59' E 028°27'4 3.8
2015-Nov-08 15:33N 59°58' E 028°20'0 0.4
2015-Nov-08 14:33N 59°58' E 028°20'1 0.6
2015-Nov-08 13:33N 59°58' E 028°19'2 1.6
2015-Nov-08 12:33N 59°58' E 028°23'0 0.0
2015-Nov-08 11:33N 59°58' E 028°23'0 0.0
2015-Nov-08 10:33N 59°58' E 028°23'0 0.0
2015-Nov-08 09:34N 59°58' E 028°23'0 0.0
2015-Nov-08 08:33N 59°58' E 028°23'0 0.0
2015-Nov-08 07:33N 59°58' E 028°23'0 0.4
2015-Nov-08 06:33N 59°58' E 028°23'6 5.6
2015-Nov-08 05:33N 59°59' E 028°35'6 6.3
2015-Nov-08 04:33N 60°00' E 028°47'7 6.5
2015-Nov-08 03:33N 60°00' E 029°00'23 6.9
2015-Nov-08 00:10N 59°58' E 029°46'5 7.5
2015-Nov-07 23:33N 59°56' E 029°55'7 6.6
2015-Nov-07 22:33N 59°57' E 030°08'6 6.3
2015-Nov-07 21:33N 59°57' E 030°21'4 0.9
2015-Nov-07 17:25N 59°54' E 030°26'3 3.9
2015-Nov-07 16:33N 59°57' E 030°23'5 4.6
2015-Nov-07 15:33N 59°58' E 030°13'5 5.4
2015-Nov-07 14:33N 59°56' E 030°03'6 5.6
2015-Nov-07 13:33N 59°57' E 029°52'26 6.4
2015-Nov-07 09:26N 59°60' E 029°00'5 5.1
2015-Nov-07 08:30N 60°00' E 028°51'5 5.0
2015-Nov-07 07:33N 59°60' E 028°41'5 5.1
2015-Nov-07 06:33N 59°59' E 028°31'5 5.2
2015-Nov-07 05:34N 59°59' E 028°21'1 0.8
2015-Nov-07 04:33N 59°58' E 028°19'2 1.5
2015-Nov-07 03:33N 59°59' E 028°22'6 5.9
2015-Nov-07 02:33N 59°59' E 028°34'7 6.8
2015-Nov-07 01:33N 60°00' E 028°48'7 7.2
2015-Nov-07 00:31N 60°00' E 029°03'22 7.3
2015-Nov-06 21:31N 59°58' E 029°46'7 7.0
2015-Nov-06 20:34N 59°56' E 029°59'7 6.7
2015-Nov-06 19:33N 59°58' E 030°11'6 6.5
2015-Nov-06 18:33N 59°57' E 030°24'2 0.3
2015-Nov-06 13:04N 59°56' E 030°24'2 3.1
2015-Nov-06 12:32N 59°57' E 030°22'4 3.6
2015-Nov-06 11:33N 59°57' E 030°15'54 4.1
2015-Nov-05 22:33N 59°58' E 028°28'3 3.5
2015-Nov-05 21:33N 59°59' E 028°21'0 0.2
2015-Nov-05 20:33N 59°59' E 028°21'3 3.1
2015-Nov-05 19:33N 59°58' E 028°27'7 7.0
2015-Nov-05 18:31N 59°60' E 028°41'8 7.0
2015-Nov-05 17:22N 60°00' E 028°57'39 5.7
2015-Nov-05 10:33N 59°52' E 030°13'0 0.1
2015-Nov-05 09:33N 59°52' E 030°13'0 0.0
2015-Nov-05 08:33N 59°52' E 030°13'0 0.0
2015-Nov-05 07:33N 59°52' E 030°13'1 1.0
2015-Nov-05 06:33N 59°53' E 030°12'6 5.7
2015-Nov-05 05:33N 59°55' E 030°02'2 2.0
2015-Nov-05 04:33N 59°55' E 029°58'0 0.0
2015-Nov-05 03:33N 59°55' E 029°58'0 0.0
2015-Nov-05 02:33N 59°55' E 029°58'0 0.0
2015-Nov-05 01:33N 59°55' E 029°58'2 2.5
2015-Nov-05 00:33N 59°57' E 029°53'25 6.0
2015-Nov-04 20:19N 60°00' E 029°03'5 6.2
2015-Nov-04 19:33N 59°60' E 028°53'6 6.2
2015-Nov-04 18:33N 59°60' E 028°41'6 6.2
2015-Nov-04 17:33N 59°59' E 028°29'4 4.3
2015-Nov-04 16:33N 59°59' E 028°20'0 0.4
2015-Nov-04 15:33N 59°59' E 028°19'2 1.9
2015-Nov-04 14:33N 59°59' E 028°23'5 4.6
2015-Nov-04 13:33N 59°59' E 028°32'6 6.2
2015-Nov-04 12:33N 59°60' E 028°45'4 4.3
2015-Nov-04 11:32N 60°00' E 028°54'5 4.8
2015-Nov-04 10:33N 60°00' E 029°03'19 5.7
2015-Nov-04 07:11N 59°60' E 029°41'4 6.3
2015-Nov-04 06:33N 59°58' E 029°48'6 6.2
2015-Nov-04 05:33N 59°55' E 029°60'5 5.2
2015-Nov-04 04:34N 59°57' E 030°09'2 2.1
2015-Nov-04 03:33N 59°58' E 030°13'0 0.0
2015-Nov-04 02:33N 59°58' E 030°13'0 0.0
2015-Nov-04 01:33N 59°58' E 030°13'0 0.0
2015-Nov-04 00:33N 59°58' E 030°13'0 0.0
2015-Nov-03 23:33N 59°58' E 030°13'0 0.0
2015-Nov-03 22:33N 59°58' E 030°13'0 0.0
2015-Nov-03 21:33N 59°58' E 030°13'0 0.0
2015-Nov-03 20:33N 59°58' E 030°13'0 0.0
2015-Nov-03 19:33N 59°58' E 030°13'0 0.0
2015-Nov-03 18:33N 59°58' E 030°13'0 0.0
2015-Nov-03 17:33N 59°58' E 030°13'0 0.0
2015-Nov-03 16:33N 59°58' E 030°13'0 0.0
2015-Nov-03 15:33N 59°58' E 030°13'0 0.0
2015-Nov-03 14:33N 59°58' E 030°13'0 0.0
2015-Nov-03 13:33N 59°58' E 030°13'0 0.0
2015-Nov-03 12:33N 59°58' E 030°13'0 0.0
2015-Nov-03 11:33N 59°58' E 030°13'0 0.0
2015-Nov-03 10:33N 59°58' E 030°13'  

Dump ship's entire track history